sensor_id;sensor_type;location;lat;lon;timestamp;pressure;altitude;pressure_sealevel;temperature;humidity
78210;BME280;67485;48.816;9.930;2024-02-26T00:02:19;95025.06;;;5.62;72.56
78210;BME280;67485;48.816;9.930;2024-02-26T00:04:44;95016.44;;;5.61;71.86
78210;BME280;67485;48.816;9.930;2024-02-26T00:07:10;95006.94;;;5.60;72.03
78210;BME280;67485;48.816;9.930;2024-02-26T00:09:36;95019.94;;;5.60;72.40
78210;BME280;67485;48.816;9.930;2024-02-26T00:12:03;95010.56;;;5.56;72.44
78210;BME280;67485;48.816;9.930;2024-02-26T00:14:32;95018.22;;;5.59;71.84
78210;BME280;67485;48.816;9.930;2024-02-26T00:16:58;95003.50;;;5.60;71.91
78210;BME280;67485;48.816;9.930;2024-02-26T00:19:23;95019.94;;;5.60;71.13
78210;BME280;67485;48.816;9.930;2024-02-26T00:21:49;95012.03;;;5.63;71.10
78210;BME280;67485;48.816;9.930;2024-02-26T00:24:14;95017.16;;;5.65;70.16
78210;BME280;67485;48.816;9.930;2024-02-26T00:26:40;95024.91;;;5.66;70.69
78210;BME280;67485;48.816;9.930;2024-02-26T00:29:06;95020.59;;;5.65;70.50
78210;BME280;67485;48.816;9.930;2024-02-26T00:31:31;95024.91;;;5.66;70.46
78210;BME280;67485;48.816;9.930;2024-02-26T00:33:57;95020.38;;;5.72;67.96
78210;BME280;67485;48.816;9.930;2024-02-26T00:36:23;95022.75;;;5.78;69.08
78210;BME280;67485;48.816;9.930;2024-02-26T00:38:48;95026.38;;;5.74;69.23
78210;BME280;67485;48.816;9.930;2024-02-26T00:41:17;95030.78;;;5.72;69.66
78210;BME280;67485;48.816;9.930;2024-02-26T00:43:43;95029.03;;;5.72;69.47
78210;BME280;67485;48.816;9.930;2024-02-26T00:46:08;95031.59;;;5.74;68.29
78210;BME280;67485;48.816;9.930;2024-02-26T00:48:35;95024.69;;;5.73;69.50
78210;BME280;67485;48.816;9.930;2024-02-26T00:51:00;95028.84;;;5.77;68.63
78210;BME280;67485;48.816;9.930;2024-02-26T00:53:26;95024.53;;;5.77;67.76
78210;BME280;67485;48.816;9.930;2024-02-26T00:55:52;95016.66;;;5.79;68.41
78210;BME280;67485;48.816;9.930;2024-02-26T00:58:18;95032.03;;;5.85;68.26
78210;BME280;67485;48.816;9.930;2024-02-26T01:00:44;95027.88;;;5.81;69.37
78210;BME280;67485;48.816;9.930;2024-02-26T01:03:10;95025.25;;;5.81;69.66
78210;BME280;67485;48.816;9.930;2024-02-26T01:05:36;95022.09;;;5.73;70.08
78210;BME280;67485;48.816;9.930;2024-02-26T01:08:03;95016.44;;;5.61;70.72
78210;BME280;67485;48.816;9.930;2024-02-26T01:10:29;95018.22;;;5.59;69.97
78210;BME280;67485;48.816;9.930;2024-02-26T01:12:55;95017.31;;;5.60;68.32
78210;BME280;67485;48.816;9.930;2024-02-26T01:15:21;95025.13;;;5.60;69.61
78210;BME280;67485;48.816;9.930;2024-02-26T01:17:52;95020.59;;;5.65;70.25
78210;BME280;67485;48.816;9.930;2024-02-26T01:20:18;95021.72;;;5.58;70.28
78210;BME280;67485;48.816;9.930;2024-02-26T01:22:44;95007.97;;;5.56;70.73
78210;BME280;67485;48.816;9.930;2024-02-26T01:25:10;95015.69;;;5.58;71.07
78210;BME280;67485;48.816;9.930;2024-02-26T01:27:36;95015.91;;;5.51;70.49
78210;BME280;67485;48.816;9.930;2024-02-26T01:30:03;95008.91;;;5.54;70.47
78210;BME280;67485;48.816;9.930;2024-02-26T01:32:29;95001.28;;;5.49;70.92
78210;BME280;67485;48.816;9.930;2024-02-26T01:34:56;95011.78;;;5.46;70.68
78210;BME280;67485;48.816;9.930;2024-02-26T01:37:21;95006.59;;;5.46;70.35
78210;BME280;67485;48.816;9.930;2024-02-26T01:39:47;95017.97;;;5.42;70.21
78210;BME280;67485;48.816;9.930;2024-02-26T01:42:13;95016.28;;;5.41;70.50
78210;BME280;67485;48.816;9.930;2024-02-26T01:44:38;95009.56;;;5.35;71.45
78210;BME280;67485;48.816;9.930;2024-02-26T01:47:07;95008.59;;;5.38;71.39
78210;BME280;67485;48.816;9.930;2024-02-26T01:49:34;95019.09;;;5.34;71.69
78210;BME280;67485;48.816;9.930;2024-02-26T01:52:01;95022.19;;;5.46;71.11
78210;BME280;67485;48.816;9.930;2024-02-26T01:54:28;95021.38;;;5.44;70.65
78210;BME280;67485;48.816;9.930;2024-02-26T01:56:55;95017.91;;;5.43;70.99
78210;BME280;67485;48.816;9.930;2024-02-26T01:59:20;95012.09;;;5.36;70.75
78210;BME280;67485;48.816;9.930;2024-02-26T02:01:52;95011.25;;;5.36;71.37
78210;BME280;67485;48.816;9.930;2024-02-26T02:04:20;95009.78;;;5.29;71.48
78210;BME280;67485;48.816;9.930;2024-02-26T02:06:46;95012.44;;;5.27;71.48
78210;BME280;67485;48.816;9.930;2024-02-26T02:09:12;95004.44;;;5.33;72.05
78210;BME280;67485;48.816;9.930;2024-02-26T02:11:38;95000.22;;;5.29;70.97
78210;BME280;67485;48.816;9.930;2024-02-26T02:14:04;95001.91;;;5.30;70.40
78210;BME280;67485;48.816;9.930;2024-02-26T02:16:29;95000.22;;;5.29;71.26
78210;BME280;67485;48.816;9.930;2024-02-26T02:18:55;95014.38;;;5.20;70.68
78210;BME280;67485;48.816;9.930;2024-02-26T02:21:21;95004.03;;;5.19;71.56
78210;BME280;67485;48.816;9.930;2024-02-26T02:23:46;95014.56;;;5.16;71.36
78210;BME280;67485;48.816;9.930;2024-02-26T02:26:15;95003.22;;;5.18;71.81
78210;BME280;67485;48.816;9.930;2024-02-26T02:28:41;95011.16;;;5.14;71.93
78210;BME280;67485;48.816;9.930;2024-02-26T02:31:07;95007.88;;;5.09;72.56
78210;BME280;67485;48.816;9.930;2024-02-26T02:33:34;95012.03;;;5.13;72.71
78210;BME280;67485;48.816;9.930;2024-02-26T02:35:59;95013.81;;;5.12;72.61
78210;BME280;67485;48.816;9.930;2024-02-26T02:38:25;95019.22;;;5.06;71.97
78210;BME280;67485;48.816;9.930;2024-02-26T02:40:54;95027.13;;;5.01;72.65
78210;BME280;67485;48.816;9.930;2024-02-26T02:43:20;95011.34;;;5.08;72.15
78210;BME280;67485;48.816;9.930;2024-02-26T02:45:45;95015.81;;;5.04;72.02
78210;BME280;67485;48.816;9.930;2024-02-26T02:48:11;95017.94;;;5.18;72.85
78210;BME280;67485;48.816;9.930;2024-02-26T02:50:37;95019.34;;;5.28;71.11
78210;BME280;67485;48.816;9.930;2024-02-26T02:53:03;95012.66;;;5.21;69.92
78210;BME280;67485;48.816;9.930;2024-02-26T02:55:29;95019.63;;;5.19;69.92
78210;BME280;67485;48.816;9.930;2024-02-26T02:57:54;95018.03;;;5.15;70.80
78210;BME280;67485;48.816;9.930;2024-02-26T03:00:20;95023.44;;;5.09;71.58
78210;BME280;67485;48.816;9.930;2024-02-26T03:02:49;95031.31;;;5.06;70.98
78210;BME280;67485;48.816;9.930;2024-02-26T03:05:14;95033.72;;;5.12;71.35
78210;BME280;67485;48.816;9.930;2024-02-26T03:07:40;95038.81;;;5.15;71.90
78210;BME280;67485;48.816;9.930;2024-02-26T03:10:06;95051.88;;;5.13;70.99
78210;BME280;67485;48.816;9.930;2024-02-26T03:12:33;95049.09;;;5.18;71.87
78210;BME280;67485;48.816;9.930;2024-02-26T03:14:59;95048.88;;;5.24;68.78
78210;BME280;67485;48.816;9.930;2024-02-26T03:17:30;95049.75;;;5.25;68.60
78210;BME280;67485;48.816;9.930;2024-02-26T03:19:56;95056.59;;;5.26;69.66
78210;BME280;67485;48.816;9.930;2024-02-26T03:22:22;95060.00;;;5.28;69.94
78210;BME280;67485;48.816;9.930;2024-02-26T03:24:48;95045.38;;;5.25;69.31
78210;BME280;67485;48.816;9.930;2024-02-26T03:27:14;95024.63;;;5.25;70.43
78210;BME280;67485;48.816;9.930;2024-02-26T03:29:39;95026.66;;;5.15;69.99
78210;BME280;67485;48.816;9.930;2024-02-26T03:32:06;95041.41;;;5.15;70.39
78210;BME280;67485;48.816;9.930;2024-02-26T03:34:32;95035.22;;;5.19;70.27
78210;BME280;67485;48.816;9.930;2024-02-26T03:37:00;95040.19;;;5.25;70.74
78210;BME280;67485;48.816;9.930;2024-02-26T03:39:26;95035.22;;;5.19;70.71
78210;BME280;67485;48.816;9.930;2024-02-26T03:41:52;95051.13;;;5.10;71.11
78210;BME280;67485;48.816;9.930;2024-02-26T03:44:18;95050.41;;;5.05;71.59
78210;BME280;67485;48.816;9.930;2024-02-26T03:46:43;95053.00;;;5.05;70.79
78210;BME280;67485;48.816;9.930;2024-02-26T03:49:09;95060.00;;;5.02;70.78
78210;BME280;67485;48.816;9.930;2024-02-26T03:51:35;95060.81;;;5.05;70.72
78210;BME280;67485;48.816;9.930;2024-02-26T03:54:01;95060.63;;;5.09;70.84
78210;BME280;67485;48.816;9.930;2024-02-26T03:56:27;95057.97;;;5.11;70.70
78210;BME280;67485;48.816;9.930;2024-02-26T03:58:53;95059.72;;;5.10;70.17
78210;BME280;67485;48.816;9.930;2024-02-26T04:01:19;95069.28;;;5.10;70.51
78210;BME280;67485;48.816;9.930;2024-02-26T04:03:45;95082.06;;;5.16;70.82
78210;BME280;67485;48.816;9.930;2024-02-26T04:06:11;95079.25;;;5.22;70.34
78210;BME280;67485;48.816;9.930;2024-02-26T04:08:40;95065.72;;;5.12;71.09
78210;BME280;67485;48.816;9.930;2024-02-26T04:11:06;95070.19;;;5.09;71.97
78210;BME280;67485;48.816;9.930;2024-02-26T04:13:33;95071.75;;;5.13;71.62
78210;BME280;67485;48.816;9.930;2024-02-26T04:15:59;95061.63;;;5.05;70.91
78210;BME280;67485;48.816;9.930;2024-02-26T04:18:27;95054.69;;;5.06;70.32
78210;BME280;67485;48.816;9.930;2024-02-26T04:20:53;95043.41;;;5.07;70.00
78210;BME280;67485;48.816;9.930;2024-02-26T04:23:19;95060.69;;;5.08;71.33
78210;BME280;67485;48.816;9.930;2024-02-26T04:25:45;95059.78;;;5.09;70.66
78210;BME280;67485;48.816;9.930;2024-02-26T04:28:11;95072.41;;;5.19;71.70
78210;BME280;67485;48.816;9.930;2024-02-26T04:30:37;95064.97;;;5.09;72.40
78210;BME280;67485;48.816;9.930;2024-02-26T04:33:03;95071.22;;;5.03;72.45
78210;BME280;67485;48.816;9.930;2024-02-26T04:35:29;95085.00;;;5.05;72.32
78210;BME280;67485;48.816;9.930;2024-02-26T04:37:55;95078.22;;;5.01;73.17
78210;BME280;67485;48.816;9.930;2024-02-26T04:40:21;95073.16;;;4.96;72.77
78210;BME280;67485;48.816;9.930;2024-02-26T04:42:46;95076.56;;;4.98;73.25
78210;BME280;67485;48.816;9.930;2024-02-26T04:45:12;95074.88;;;4.97;73.42
78210;BME280;67485;48.816;9.930;2024-02-26T04:47:38;95074.94;;;4.96;73.60
78210;BME280;67485;48.816;9.930;2024-02-26T04:50:04;95076.59;;;4.97;73.27
78210;BME280;67485;48.816;9.930;2024-02-26T04:52:30;95058.56;;;4.94;73.58
78210;BME280;67485;48.816;9.930;2024-02-26T04:54:55;95051.66;;;4.93;73.17
78210;BME280;67485;48.816;9.930;2024-02-26T04:57:21;95047.34;;;4.92;73.43
78210;BME280;67485;48.816;9.930;2024-02-26T04:59:47;95041.38;;;4.90;74.08
78210;BME280;67485;48.816;9.930;2024-02-26T05:02:13;95033.81;;;4.83;73.67
78210;BME280;67485;48.816;9.930;2024-02-26T05:04:39;95040.78;;;4.81;73.79
78210;BME280;67485;48.816;9.930;2024-02-26T05:07:05;95031.34;;;4.79;73.99
78210;BME280;67485;48.816;9.930;2024-02-26T05:09:31;95035.53;;;4.83;74.78
78210;BME280;67485;48.816;9.930;2024-02-26T05:11:57;95038.47;;;4.99;73.73
78210;BME280;67485;48.816;9.930;2024-02-26T05:14:23;95047.97;;;5.00;74.10
78210;BME280;67485;48.816;9.930;2024-02-26T05:16:49;95051.19;;;5.07;74.62
78210;BME280;67485;48.816;9.930;2024-02-26T05:19:14;95048.22;;;4.92;75.17
78210;BME280;67485;48.816;9.930;2024-02-26T05:21:40;95045.97;;;4.81;75.24
78210;BME280;67485;48.816;9.930;2024-02-26T05:24:09;95044.38;;;4.77;75.78
78210;BME280;67485;48.816;9.930;2024-02-26T05:26:35;95043.63;;;4.74;75.95
78210;BME280;67485;48.816;9.930;2024-02-26T05:29:01;95042.72;;;4.75;75.50
78210;BME280;67485;48.816;9.930;2024-02-26T05:31:27;95047.13;;;4.73;76.02
78210;BME280;67485;48.816;9.930;2024-02-26T05:33:54;95040.97;;;4.75;76.45
78210;BME280;67485;48.816;9.930;2024-02-26T05:36:23;95034.94;;;4.75;76.38
78210;BME280;67485;48.816;9.930;2024-02-26T05:38:49;95033.31;;;4.72;76.25
78210;BME280;67485;48.816;9.930;2024-02-26T05:41:15;95030.78;;;4.69;76.93
78210;BME280;67485;48.816;9.930;2024-02-26T05:43:42;95031.75;;;4.66;77.07
78210;BME280;67485;48.816;9.930;2024-02-26T05:46:07;95030.91;;;4.66;77.39
78210;BME280;67485;48.816;9.930;2024-02-26T05:48:33;95028.31;;;4.66;77.18
78210;BME280;67485;48.816;9.930;2024-02-26T05:50:59;95024.84;;;4.65;77.38
78210;BME280;67485;48.816;9.930;2024-02-26T05:53:25;95033.50;;;4.66;77.43
78210;BME280;67485;48.816;9.930;2024-02-26T05:55:51;95034.34;;;4.66;76.73
78210;BME280;67485;48.816;9.930;2024-02-26T05:58:16;95029.16;;;4.66;77.04
78210;BME280;67485;48.816;9.930;2024-02-26T06:00:42;95033.44;;;4.67;76.48
78210;BME280;67485;48.816;9.930;2024-02-26T06:03:07;95035.69;;;4.78;76.59
78210;BME280;67485;48.816;9.930;2024-02-26T06:05:36;95028.94;;;4.73;76.98
78210;BME280;67485;48.816;9.930;2024-02-26T06:08:01;95035.78;;;4.75;76.86
78210;BME280;67485;48.816;9.930;2024-02-26T06:10:28;95031.44;;;4.76;75.48
78210;BME280;67485;48.816;9.930;2024-02-26T06:12:53;95042.63;;;4.78;75.47
78210;BME280;67485;48.816;9.930;2024-02-26T06:15:19;95048.75;;;4.75;76.31
78210;BME280;67485;48.816;9.930;2024-02-26T06:17:45;95063.50;;;4.73;75.90
78210;BME280;67485;48.816;9.930;2024-02-26T06:20:11;95079.00;;;4.76;76.00
78210;BME280;67485;48.816;9.930;2024-02-26T06:22:40;95082.41;;;4.78;76.78
78210;BME280;67485;48.816;9.930;2024-02-26T06:25:07;95099.56;;;4.82;76.15
78210;BME280;67485;48.816;9.930;2024-02-26T06:27:32;95111.50;;;4.88;75.84
78210;BME280;67485;48.816;9.930;2024-02-26T06:29:58;95105.13;;;4.98;75.01
78210;BME280;67485;48.816;9.930;2024-02-26T06:32:24;95097.34;;;4.98;75.25
78210;BME280;67485;48.816;9.930;2024-02-26T06:34:49;95112.00;;;4.99;74.97
78210;BME280;67485;48.816;9.930;2024-02-26T06:37:15;95108.63;;;4.97;75.66
78210;BME280;67485;48.816;9.930;2024-02-26T06:39:41;95106.59;;;5.06;75.67
78210;BME280;67485;48.816;9.930;2024-02-26T06:42:07;95101.34;;;5.09;75.75
78210;BME280;67485;48.816;9.930;2024-02-26T06:44:33;95117.00;;;5.06;74.27
78210;BME280;67485;48.816;9.930;2024-02-26T06:46:59;95114.31;;;5.09;74.07
78210;BME280;67485;48.816;9.930;2024-02-26T06:49:25;95117.81;;;5.08;74.88
78210;BME280;67485;48.816;9.930;2024-02-26T06:51:51;95121.09;;;5.13;74.83
78210;BME280;67485;48.816;9.930;2024-02-26T06:54:17;95118.63;;;5.10;75.03
78210;BME280;67485;48.816;9.930;2024-02-26T06:56:43;95123.69;;;5.13;75.39
78210;BME280;67485;48.816;9.930;2024-02-26T06:59:08;95126.41;;;5.10;75.94
78210;BME280;67485;48.816;9.930;2024-02-26T07:01:34;95128.25;;;5.06;75.84
78210;BME280;67485;48.816;9.930;2024-02-26T07:04:00;95129.84;;;5.10;76.57
78210;BME280;67485;48.816;9.930;2024-02-26T07:06:27;95129.63;;;5.16;76.86
78210;BME280;67485;48.816;9.930;2024-02-26T07:08:52;95130.19;;;5.26;75.87
78210;BME280;67485;48.816;9.930;2024-02-26T07:11:20;95132.69;;;5.29;76.19
78210;BME280;67485;48.816;9.930;2024-02-26T07:13:49;95136.91;;;5.33;76.31
78210;BME280;67485;48.816;9.930;2024-02-26T07:16:15;95144.63;;;5.35;75.53
78210;BME280;67485;48.816;9.930;2024-02-26T07:18:41;95137.53;;;5.40;75.10
78210;BME280;67485;48.816;9.930;2024-02-26T07:21:07;95143.34;;;5.47;75.04
78210;BME280;67485;48.816;9.930;2024-02-26T07:23:33;95147.56;;;5.51;75.35
78210;BME280;67485;48.816;9.930;2024-02-26T07:25:58;95137.94;;;5.53;75.60
78210;BME280;67485;48.816;9.930;2024-02-26T07:28:24;95144.75;;;5.57;74.26
78210;BME280;67485;48.816;9.930;2024-02-26T07:30:50;95149.75;;;5.63;72.82
78210;BME280;67485;48.816;9.930;2024-02-26T07:33:16;95139.13;;;5.69;73.07
78210;BME280;67485;48.816;9.930;2024-02-26T07:35:42;95142.53;;;5.72;73.56
78210;BME280;67485;48.816;9.930;2024-02-26T07:38:07;95145.13;;;5.72;73.37
78210;BME280;67485;48.816;9.930;2024-02-26T07:40:33;95145.81;;;5.77;72.60
78210;BME280;67485;48.816;9.930;2024-02-26T07:42:59;95149.31;;;5.76;72.44
78210;BME280;67485;48.816;9.930;2024-02-26T07:45:24;95134.66;;;5.73;73.32
78210;BME280;67485;48.816;9.930;2024-02-26T07:47:50;95141.63;;;5.73;72.83
78210;BME280;67485;48.816;9.930;2024-02-26T07:50:17;95143.22;;;5.77;73.62
78210;BME280;67485;48.816;9.930;2024-02-26T07:52:43;95139.44;;;5.85;73.56
78210;BME280;67485;48.816;9.930;2024-02-26T07:55:10;95135.56;;;5.99;73.62
78210;BME280;67485;48.816;9.930;2024-02-26T07:57:36;95132.53;;;6.11;72.37
78210;BME280;67485;48.816;9.930;2024-02-26T08:00:03;95137.09;;;6.28;72.01
78210;BME280;67485;48.816;9.930;2024-02-26T08:02:30;95140.78;;;6.46;71.60
78210;BME280;67485;48.816;9.930;2024-02-26T08:04:56;95127.97;;;6.64;71.31
78210;BME280;67485;48.816;9.930;2024-02-26T08:07:21;95133.03;;;6.69;71.51
78210;BME280;67485;48.816;9.930;2024-02-26T08:09:47;95131.97;;;6.73;70.91
78210;BME280;67485;48.816;9.930;2024-02-26T08:12:13;95132.31;;;6.63;70.43
78210;BME280;67485;48.816;9.930;2024-02-26T08:14:40;95145.22;;;6.67;70.82
78210;BME280;67485;48.816;9.930;2024-02-26T08:17:06;95145.16;;;6.68;70.10
78210;BME280;67485;48.816;9.930;2024-02-26T08:19:32;95140.81;;;6.69;70.18
78210;BME280;67485;48.816;9.930;2024-02-26T08:21:57;95140.69;;;6.72;69.75
78210;BME280;67485;48.816;9.930;2024-02-26T08:24:23;95147.69;;;6.70;69.13
78210;BME280;67485;48.816;9.930;2024-02-26T08:26:49;95151.00;;;6.75;69.05
78210;BME280;67485;48.816;9.930;2024-02-26T08:29:14;95151.38;;;6.88;68.98
78210;BME280;67485;48.816;9.930;2024-02-26T08:31:40;95165.34;;;6.85;68.88
78210;BME280;67485;48.816;9.930;2024-02-26T08:34:06;95163.44;;;6.90;68.43
78210;BME280;67485;48.816;9.930;2024-02-26T08:36:33;95171.91;;;6.95;68.35
78210;BME280;67485;48.816;9.930;2024-02-26T08:38:59;95176.31;;;6.93;67.74
78210;BME280;67485;48.816;9.930;2024-02-26T08:41:25;95173.03;;;6.88;68.20
78210;BME280;67485;48.816;9.930;2024-02-26T08:43:50;95186.78;;;6.92;68.68
78210;BME280;67485;48.816;9.930;2024-02-26T08:46:16;95195.34;;;6.95;66.99
78210;BME280;67485;48.816;9.930;2024-02-26T08:48:42;95188.09;;;7.04;67.00
78210;BME280;67485;48.816;9.930;2024-02-26T08:51:08;95193.66;;;7.17;67.13
78210;BME280;67485;48.816;9.930;2024-02-26T08:53:35;95190.75;;;7.24;66.26
78210;BME280;67485;48.816;9.930;2024-02-26T08:56:01;95182.69;;;7.30;66.00
78210;BME280;67485;48.816;9.930;2024-02-26T08:58:28;95192.63;;;7.43;65.46
78210;BME280;67485;48.816;9.930;2024-02-26T09:00:54;95187.34;;;7.44;64.90
78210;BME280;67485;48.816;9.930;2024-02-26T09:03:20;95191.22;;;7.56;65.40
78210;BME280;67485;48.816;9.930;2024-02-26T09:05:46;95193.13;;;7.73;65.72
78210;BME280;67485;48.816;9.930;2024-02-26T09:08:12;95193.72;;;7.80;63.66
78210;BME280;67485;48.816;9.930;2024-02-26T09:10:38;95195.16;;;7.87;63.98
78210;BME280;67485;48.816;9.930;2024-02-26T09:13:04;95204.94;;;8.03;64.31
78210;BME280;67485;48.816;9.930;2024-02-26T09:15:30;95209.50;;;8.18;64.41
78210;BME280;67485;48.816;9.930;2024-02-26T09:17:56;95199.06;;;8.18;64.10
78210;BME280;67485;48.816;9.930;2024-02-26T09:20:21;95207.81;;;8.17;64.68
78210;BME280;67485;48.816;9.930;2024-02-26T09:22:49;95204.44;;;8.15;66.00
78210;BME280;67485;48.816;9.930;2024-02-26T09:25:16;95201.81;;;8.15;65.96
78210;BME280;67485;48.816;9.930;2024-02-26T09:27:43;95206.00;;;8.19;66.50
78210;BME280;67485;48.816;9.930;2024-02-26T09:30:10;95213.56;;;8.25;66.53
78210;BME280;67485;48.816;9.930;2024-02-26T09:32:36;95214.38;;;8.26;66.15
78210;BME280;67485;48.816;9.930;2024-02-26T09:35:02;95217.00;;;8.26;65.58
78210;BME280;67485;48.816;9.930;2024-02-26T09:37:27;95217.59;;;8.33;65.28
78210;BME280;67485;48.816;9.930;2024-02-26T09:39:53;95220.59;;;8.23;64.78
78210;BME280;67485;48.816;9.930;2024-02-26T09:42:19;95220.72;;;8.20;66.07
78210;BME280;67485;48.816;9.930;2024-02-26T09:44:45;95212.97;;;8.19;65.75
78210;BME280;67485;48.816;9.930;2024-02-26T09:47:11;95216.41;;;8.40;64.87
78210;BME280;67485;48.816;9.930;2024-02-26T09:49:42;95216.53;;;8.57;63.84
78210;BME280;67485;48.816;9.930;2024-02-26T09:52:08;95219.03;;;8.60;63.45
78210;BME280;67485;48.816;9.930;2024-02-26T09:54:35;95214.44;;;8.66;64.43
78210;BME280;67485;48.816;9.930;2024-02-26T09:57:02;95222.13;;;8.69;65.50
78210;BME280;67485;48.816;9.930;2024-02-26T09:59:35;95220.53;;;8.85;63.91
78210;BME280;67485;48.816;9.930;2024-02-26T10:02:03;95233.25;;;9.12;63.56
78210;BME280;67485;48.816;9.930;2024-02-26T10:04:30;95228.94;;;9.67;62.08
78210;BME280;67485;48.816;9.930;2024-02-26T10:06:57;95227.38;;;9.63;59.73
78210;BME280;67485;48.816;9.930;2024-02-26T10:09:25;95230.84;;;9.63;61.55
78210;BME280;67485;48.816;9.930;2024-02-26T10:11:51;95229.03;;;9.46;61.83
78210;BME280;67485;48.816;9.930;2024-02-26T10:14:17;95224.34;;;9.35;63.13
78210;BME280;67485;48.816;9.930;2024-02-26T10:16:43;95226.41;;;9.46;63.43
78210;BME280;67485;48.816;9.930;2024-02-26T10:19:08;95222.16;;;9.63;61.96
78210;BME280;67485;48.816;9.930;2024-02-26T10:21:36;95220.41;;;9.81;60.30
78210;BME280;67485;48.816;9.930;2024-02-26T10:24:01;95216.59;;;10.23;59.04
78210;BME280;67485;48.816;9.930;2024-02-26T10:26:27;95214.00;;;10.74;56.90
78210;BME280;67485;48.816;9.930;2024-02-26T10:28:53;95214.63;;;11.11;55.71
78210;BME280;67485;48.816;9.930;2024-02-26T10:31:24;95222.16;;;11.49;53.68
78210;BME280;67485;48.816;9.930;2024-02-26T10:33:55;95217.63;;;11.83;51.52
78210;BME280;67485;48.816;9.930;2024-02-26T10:36:20;95217.66;;;11.51;51.84
78210;BME280;67485;48.816;9.930;2024-02-26T10:38:46;95221.13;;;11.52;51.79
78210;BME280;67485;48.816;9.930;2024-02-26T10:41:13;95211.75;;;11.32;51.17
78210;BME280;67485;48.816;9.930;2024-02-26T10:43:42;95214.78;;;11.72;50.69
78210;BME280;67485;48.816;9.930;2024-02-26T10:46:08;95215.22;;;11.95;50.41
78210;BME280;67485;48.816;9.930;2024-02-26T10:48:33;95221.41;;;12.69;49.73
78210;BME280;67485;48.816;9.930;2024-02-26T10:50:59;95204.09;;;13.23;47.61
78210;BME280;67485;48.816;9.930;2024-02-26T10:53:28;95214.16;;;14.00;46.89
78210;BME280;67485;48.816;9.930;2024-02-26T10:55:58;95208.22;;;14.36;46.39
78210;BME280;67485;48.816;9.930;2024-02-26T10:58:25;95204.53;;;14.52;45.39
78210;BME280;67485;48.816;9.930;2024-02-26T11:00:51;95203.88;;;14.35;46.80
78210;BME280;67485;48.816;9.930;2024-02-26T11:03:18;95205.31;;;13.46;48.65
78210;BME280;67485;48.816;9.930;2024-02-26T11:05:47;95205.56;;;13.56;48.42
78210;BME280;67485;48.816;9.930;2024-02-26T11:08:14;95205.06;;;13.07;50.31
78210;BME280;67485;48.816;9.930;2024-02-26T11:10:40;95201.31;;;12.82;50.89
78210;BME280;67485;48.816;9.930;2024-02-26T11:13:09;95198.50;;;12.71;51.83
78210;BME280;67485;48.816;9.930;2024-02-26T11:15:38;95195.66;;;12.31;53.12
78210;BME280;67485;48.816;9.930;2024-02-26T11:18:05;95193.97;;;12.30;53.97
78210;BME280;67485;48.816;9.930;2024-02-26T11:20:33;95194.38;;;11.92;53.83
78210;BME280;67485;48.816;9.930;2024-02-26T11:23:00;95202.03;;;11.80;55.29
78210;BME280;67485;48.816;9.930;2024-02-26T11:25:25;95192.41;;;11.97;55.42
78210;BME280;67485;48.816;9.930;2024-02-26T11:27:56;95195.41;;;12.05;54.35
78210;BME280;67485;48.816;9.930;2024-02-26T11:30:25;95195.25;;;11.92;54.10
78210;BME280;67485;48.816;9.930;2024-02-26T11:32:52;95198.13;;;11.88;54.46
78210;BME280;67485;48.816;9.930;2024-02-26T11:35:18;95196.53;;;11.85;54.83
78210;BME280;67485;48.816;9.930;2024-02-26T11:37:54;95201.69;;;11.87;53.28
78210;BME280;67485;48.816;9.930;2024-02-26T11:40:25;95198.13;;;11.88;52.53
78210;BME280;67485;48.816;9.930;2024-02-26T11:42:54;95205.44;;;11.82;52.75
78210;BME280;67485;48.816;9.930;2024-02-26T11:48:28;95201.41;;;12.07;53.67
78210;BME280;67485;48.816;9.930;2024-02-26T11:50:51;95202.25;;;11.92;53.19
78210;BME280;67485;48.816;9.930;2024-02-26T11:53:31;95204.03;;;11.77;53.70
78210;BME280;67485;48.816;9.930;2024-02-26T11:56:20;95209.53;;;11.72;54.44
78210;BME280;67485;48.816;9.930;2024-02-26T11:58:56;95204.38;;;11.55;53.41
78210;BME280;67485;48.816;9.930;2024-02-26T12:01:38;95208.13;;;11.34;53.07
78210;BME280;67485;48.816;9.930;2024-02-26T12:04:05;95206.16;;;11.22;53.79
78210;BME280;67485;48.816;9.930;2024-02-26T12:06:40;95204.97;;;11.28;55.67
78210;BME280;67485;48.816;9.930;2024-02-26T12:09:07;95214.03;;;11.22;57.23
78210;BME280;67485;48.816;9.930;2024-02-26T12:11:37;95209.47;;;11.26;57.42
78210;BME280;67485;48.816;9.930;2024-02-26T12:14:03;95208.88;;;11.21;58.43
78210;BME280;67485;48.816;9.930;2024-02-26T12:16:37;95218.00;;;11.13;58.68
78210;BME280;67485;48.816;9.930;2024-02-26T12:19:07;95221.75;;;11.09;58.30
78210;BME280;67485;48.816;9.930;2024-02-26T12:21:35;95225.09;;;11.11;57.79
78210;BME280;67485;48.816;9.930;2024-02-26T12:24:12;95223.75;;;11.20;58.25
78210;BME280;67485;48.816;9.930;2024-02-26T12:26:38;95228.25;;;11.18;57.99
78210;BME280;67485;48.816;9.930;2024-02-26T12:29:04;95222.16;;;11.17;57.96
78210;BME280;67485;48.816;9.930;2024-02-26T12:31:31;95222.72;;;10.91;58.65
78210;BME280;67485;48.816;9.930;2024-02-26T12:33:57;95226.09;;;10.93;59.44
78210;BME280;67485;48.816;9.930;2024-02-26T12:36:23;95227.63;;;10.97;59.81
78210;BME280;67485;48.816;9.930;2024-02-26T12:38:52;95230.13;;;10.82;59.99
78210;BME280;67485;48.816;9.930;2024-02-26T12:41:18;95232.75;;;10.82;60.47
78210;BME280;67485;48.816;9.930;2024-02-26T12:43:44;95235.00;;;10.73;61.00
78210;BME280;67485;48.816;9.930;2024-02-26T12:46:10;95237.03;;;10.67;60.85
78210;BME280;67485;48.816;9.930;2024-02-26T12:48:36;95246.81;;;10.64;61.38
78210;BME280;67485;48.816;9.930;2024-02-26T12:51:03;95244.78;;;10.69;62.04
78210;BME280;67485;48.816;9.930;2024-02-26T12:53:29;95247.41;;;10.69;61.17
78210;BME280;67485;48.816;9.930;2024-02-26T12:55:55;95250.69;;;10.57;61.50
78210;BME280;67485;48.816;9.930;2024-02-26T12:58:21;95245.09;;;10.47;61.80
78210;BME280;67485;48.816;9.930;2024-02-26T13:00:51;95259.09;;;10.46;62.08
78210;BME280;67485;48.816;9.930;2024-02-26T13:03:18;95264.16;;;10.49;62.20
78210;BME280;67485;48.816;9.930;2024-02-26T13:05:45;95272.19;;;10.46;63.18
78210;BME280;67485;48.816;9.930;2024-02-26T13:08:17;95267.66;;;10.49;62.80